createdAt,value
2023-01-13T00:02:45.471Z,6.13
2023-01-13T00:05:49.813Z,6.41
2023-01-13T00:08:54.568Z,6.45
2023-01-13T00:12:01.351Z,6.54
2023-01-13T00:15:05.022Z,6.13
2023-01-13T00:18:08.768Z,6.00
2023-01-13T00:21:18.880Z,5.98
2023-01-13T00:24:25.558Z,6.06
2023-01-13T00:27:31.980Z,6.30
2023-01-13T00:30:40.645Z,6.22
2023-01-13T00:33:44.727Z,6.39
2023-01-13T00:36:48.804Z,6.39
2023-01-13T00:39:52.383Z,6.03
2023-01-13T00:43:21.402Z,6.38
2023-01-13T00:46:25.324Z,6.28
2023-01-13T00:49:29.659Z,6.31
2023-01-13T00:52:34.747Z,6.32
2023-01-13T00:55:41.149Z,6.45
2023-01-13T00:58:47.724Z,6.44
2023-01-13T01:01:57.918Z,6.57
2023-01-13T01:05:12.077Z,6.12
2023-01-13T01:08:16.979Z,5.95
2023-01-13T01:11:23.297Z,6.09
2023-01-13T01:14:29.437Z,6.09
2023-01-13T01:17:33.575Z,6.19
2023-01-13T01:20:38.299Z,6.07
2023-01-13T01:23:42.324Z,6.23
2023-01-13T01:26:47.251Z,6.10
2023-01-13T01:29:52.210Z,5.89
2023-01-13T01:32:57.369Z,6.06
2023-01-13T01:36:05.041Z,5.99
2023-01-13T01:39:09.195Z,6.00
2023-01-13T01:42:34.763Z,5.67
2023-01-13T01:45:42.866Z,5.82
2023-01-13T01:48:46.792Z,5.49
2023-01-13T01:51:55.124Z,5.47
2023-01-13T01:55:03.182Z,5.54
2023-01-13T01:58:17.284Z,5.43
2023-01-13T02:01:22.917Z,5.49
2023-01-13T02:04:32.177Z,5.50
2023-01-13T02:07:39.933Z,5.63
2023-01-13T02:10:47.455Z,5.17
2023-01-13T02:13:51.471Z,5.47
2023-01-13T02:17:46.901Z,5.20
2023-01-13T02:21:04.397Z,5.14
2023-01-13T02:24:50.064Z,5.50
2023-01-13T02:28:15.929Z,5.73
2023-01-13T02:31:43.232Z,5.78
2023-01-13T02:34:56.763Z,5.57
2023-01-13T02:38:30.147Z,5.34
2023-01-13T02:41:58.216Z,5.60
2023-01-13T02:45:08.849Z,5.70
2023-01-13T02:48:17.611Z,5.76
2023-01-13T02:51:25.869Z,5.86
2023-01-13T02:54:31.821Z,5.84
2023-01-13T02:57:38.367Z,5.82
2023-01-13T03:00:43.962Z,5.77
2023-01-13T03:03:50.190Z,5.75
2023-01-13T03:07:03.442Z,5.85
2023-01-13T03:10:17.801Z,5.34
2023-01-13T03:13:53.577Z,5.31
2023-01-13T03:17:28.566Z,5.50
2023-01-13T03:20:41.838Z,5.75
2023-01-13T03:23:53.044Z,5.32
2023-01-13T03:27:05.447Z,5.68
2023-01-13T03:30:17.344Z,5.87
2023-01-13T03:33:28.400Z,5.97
2023-01-13T03:36:35.510Z,5.96
2023-01-13T03:39:43.505Z,5.84
2023-01-13T03:43:14.481Z,5.90
2023-01-13T03:46:29.231Z,5.77
2023-01-13T03:49:41.103Z,5.89
2023-01-13T03:52:50.164Z,5.70
2023-01-13T03:55:58.925Z,5.53
2023-01-13T03:59:07.009Z,5.07
2023-01-13T04:02:19.565Z,5.30
2023-01-13T04:05:24.881Z,5.18
2023-01-13T04:08:31.295Z,5.33
2023-01-13T04:11:41.234Z,4.98
2023-01-13T04:14:45.957Z,5.21
2023-01-13T04:17:49.702Z,5.36
2023-01-13T04:21:00.112Z,5.65
2023-01-13T04:24:06.907Z,5.73
2023-01-13T04:27:12.292Z,5.71
2023-01-13T04:30:16.064Z,5.42
2023-01-13T04:33:21.268Z,5.74
2023-01-13T04:36:27.729Z,5.91
2023-01-13T04:39:33.149Z,5.68
2023-01-13T04:42:37.242Z,5.75
2023-01-13T04:45:41.732Z,5.01
2023-01-13T04:48:45.355Z,5.29
2023-01-13T04:51:50.350Z,5.08
2023-01-13T04:55:02.302Z,5.27
2023-01-13T04:58:07.246Z,5.46
2023-01-13T05:01:11.218Z,5.60
2023-01-13T05:04:17.354Z,5.51
2023-01-13T05:07:21.733Z,5.71
2023-01-13T05:10:28.294Z,5.80
2023-01-13T05:13:49.115Z,5.60
2023-01-13T05:17:01.885Z,5.59
2023-01-13T05:20:06.509Z,5.14
2023-01-13T05:23:27.768Z,4.25
2023-01-13T05:26:32.966Z,4.79
2023-01-13T05:29:37.206Z,4.39
2023-01-13T05:32:41.405Z,4.43
2023-01-13T05:35:49.740Z,4.86
2023-01-13T05:38:53.436Z,4.57
2023-01-13T05:42:19.219Z,4.44
2023-01-13T05:45:22.955Z,4.74
2023-01-13T05:48:29.468Z,4.36
2023-01-13T05:51:32.953Z,4.56
2023-01-13T05:54:37.762Z,4.52
2023-01-13T05:57:42.672Z,4.46
2023-01-13T06:00:47.599Z,4.48
2023-01-13T06:03:52.239Z,4.54
2023-01-13T06:06:56.790Z,4.41
2023-01-13T06:10:00.341Z,4.20
2023-01-13T06:13:05.908Z,4.44
2023-01-13T06:16:34.394Z,4.59
2023-01-13T06:19:38.477Z,4.52
2023-01-13T06:22:45.731Z,4.64
2023-01-13T06:26:20.227Z,4.65
2023-01-13T06:29:25.018Z,4.76
2023-01-13T06:32:33.865Z,4.83
2023-01-13T06:35:43.980Z,5.00
2023-01-13T06:38:51.176Z,5.10
2023-01-13T06:42:13.275Z,4.87
2023-01-13T06:45:19.735Z,4.93
2023-01-13T06:48:25.996Z,5.07
2023-01-13T06:51:30.280Z,4.94
2023-01-13T06:54:34.749Z,4.17
2023-01-13T06:58:09.477Z,4.49
2023-01-13T07:01:14.611Z,4.59
2023-01-13T07:04:20.711Z,4.99
2023-01-13T07:07:24.516Z,4.75
2023-01-13T07:10:28.556Z,5.16
2023-01-13T07:13:50.552Z,4.83
2023-01-13T07:16:56.300Z,5.19
2023-01-13T07:20:00.742Z,5.49
2023-01-13T07:23:06.953Z,5.82
2023-01-13T07:26:12.231Z,6.00
2023-01-13T07:29:18.861Z,5.85
2023-01-13T07:32:24.282Z,6.02
2023-01-13T07:35:28.577Z,6.15
2023-01-13T07:38:58.348Z,6.45
2023-01-13T07:42:20.651Z,6.48
2023-01-13T07:45:24.247Z,6.62
2023-01-13T07:48:36.088Z,6.48
2023-01-13T07:51:41.370Z,6.54
2023-01-13T07:54:45.604Z,6.44
2023-01-13T07:58:09.611Z,6.48
2023-01-13T08:01:16.879Z,6.69
2023-01-13T08:04:22.076Z,6.61
2023-01-13T08:07:29.243Z,6.25
2023-01-13T08:10:35.922Z,6.27
2023-01-13T08:13:39.819Z,6.40
2023-01-13T08:16:43.394Z,6.37
2023-01-13T08:19:48.841Z,6.16
2023-01-13T08:22:52.339Z,6.36
2023-01-13T08:25:56.412Z,6.28
2023-01-13T08:29:01.562Z,6.63
2023-01-13T08:32:06.637Z,6.62
2023-01-13T08:35:12.261Z,6.56
2023-01-13T08:38:20.338Z,6.75
2023-01-13T08:41:37.733Z,6.61
2023-01-13T08:44:42.228Z,6.53
2023-01-13T08:48:04.048Z,6.58
2023-01-13T08:51:12.555Z,6.43
2023-01-13T08:54:16.568Z,6.35
2023-01-13T08:57:22.666Z,6.56
2023-01-13T09:00:26.385Z,6.72
2023-01-13T09:03:30.199Z,6.99
2023-01-13T09:06:35.562Z,7.04
2023-01-13T09:09:42.082Z,7.30
2023-01-13T09:13:05.473Z,7.21
2023-01-13T09:16:10.669Z,7.46
2023-01-13T09:19:14.263Z,7.30
2023-01-13T09:22:22.002Z,7.61
2023-01-13T09:25:25.907Z,7.61
2023-01-13T09:28:29.755Z,7.48
2023-01-13T09:31:38.091Z,7.42
2023-01-13T09:35:00.246Z,7.53
2023-01-13T09:38:06.563Z,7.57
2023-01-13T09:41:35.221Z,7.57
2023-01-13T09:44:47.024Z,7.47
2023-01-13T09:47:57.933Z,7.33
2023-01-13T09:51:09.855Z,7.49
2023-01-13T09:54:33.158Z,7.64
2023-01-13T09:57:40.084Z,7.72
2023-01-13T10:00:57.684Z,7.94
2023-01-13T10:04:05.812Z,8.03
2023-01-13T10:07:17.549Z,7.94
2023-01-13T10:10:37.280Z,7.96
2023-01-13T10:13:42.427Z,7.60
2023-01-13T10:16:53.995Z,7.63
2023-01-13T10:20:05.542Z,7.80
2023-01-13T10:23:26.191Z,7.94
2023-01-13T10:26:46.213Z,7.80
2023-01-13T10:29:50.183Z,7.82
2023-01-13T10:32:58.016Z,8.00
2023-01-13T10:36:05.977Z,7.89
2023-01-13T10:39:18.430Z,8.05
2023-01-13T10:42:25.556Z,8.11
2023-01-13T10:45:35.753Z,8.16
2023-01-13T10:48:42.239Z,8.21
2023-01-13T10:51:46.475Z,8.20
2023-01-13T10:54:53.021Z,8.13
2023-01-13T10:57:58.528Z,8.39
2023-01-13T11:01:04.208Z,8.54
2023-01-13T11:04:28.804Z,8.54
2023-01-13T11:07:36.471Z,8.69
2023-01-13T11:10:47.693Z,8.74
2023-01-13T11:14:13.526Z,8.81
2023-01-13T11:17:34.649Z,8.86
2023-01-13T11:20:46.871Z,8.99
2023-01-13T11:24:04.220Z,9.11
2023-01-13T11:27:17.677Z,9.12
2023-01-13T11:30:36.048Z,9.13
2023-01-13T11:34:00.794Z,9.20
2023-01-13T11:37:13.009Z,9.16
2023-01-13T11:40:23.286Z,9.06
2023-01-13T11:43:34.367Z,9.21
2023-01-13T11:46:42.880Z,9.31
2023-01-13T11:49:50.592Z,9.35
2023-01-13T11:53:12.934Z,9.45
2023-01-13T11:56:44.380Z,9.53
2023-01-13T12:00:06.294Z,9.47
2023-01-13T12:03:39.082Z,9.66
2023-01-13T12:06:43.665Z,9.68
2023-01-13T12:10:05.292Z,9.70
2023-01-13T12:13:24.221Z,9.61
2023-01-13T12:16:35.213Z,9.69
2023-01-13T12:19:50.981Z,9.69
2023-01-13T12:23:02.269Z,9.70
2023-01-13T12:26:12.191Z,9.59
2023-01-13T12:29:19.604Z,9.72
2023-01-13T12:32:36.811Z,9.67
2023-01-13T12:35:51.183Z,9.51
2023-01-13T12:38:59.624Z,9.61
2023-01-13T12:42:32.892Z,9.77
2023-01-13T12:45:37.884Z,9.72
2023-01-13T12:49:04.690Z,9.70
2023-01-13T12:52:20.283Z,9.71
2023-01-13T12:55:30.232Z,9.57
2023-01-13T12:58:34.865Z,9.46
2023-01-13T13:01:39.957Z,9.49
2023-01-13T13:04:49.703Z,9.47
2023-01-13T13:08:06.257Z,9.45
2023-01-13T13:11:43.866Z,9.52
2023-01-13T13:15:05.370Z,9.27
2023-01-13T13:18:36.320Z,9.26
2023-01-13T13:22:19.181Z,9.36
2023-01-13T13:25:36.786Z,9.28
2023-01-13T13:28:58.982Z,9.31
2023-01-13T13:32:32.607Z,9.28
2023-01-13T13:35:53.016Z,9.20
2023-01-13T13:39:39.710Z,9.30
2023-01-13T13:43:09.878Z,9.32
2023-01-13T13:46:45.746Z,9.23
2023-01-13T13:49:54.613Z,9.23
2023-01-13T13:53:07.174Z,9.34
2023-01-13T13:56:22.683Z,9.17
2023-01-13T13:59:31.242Z,9.20
2023-01-13T14:02:39.002Z,9.23
2023-01-13T14:05:54.793Z,9.18
2023-01-13T14:09:01.494Z,9.18
2023-01-13T14:12:16.539Z,9.16
2023-01-13T14:15:39.231Z,9.21
2023-01-13T14:18:46.977Z,9.24
2023-01-13T14:21:51.008Z,9.28
2023-01-13T14:24:57.836Z,9.21
2023-01-13T14:28:09.788Z,9.22
2023-01-13T14:31:23.286Z,9.18
2023-01-13T14:34:33.290Z,9.12
2023-01-13T14:37:40.335Z,8.93
2023-01-13T14:40:47.620Z,8.95
2023-01-13T14:43:57.868Z,8.79
2023-01-13T14:47:27.111Z,8.68
2023-01-13T14:50:34.811Z,8.60
2023-01-13T14:53:46.551Z,8.62
2023-01-13T14:56:55.286Z,8.59
2023-01-13T15:00:05.416Z,8.64
2023-01-13T15:03:19.198Z,8.48
2023-01-13T15:06:30.952Z,8.41
2023-01-13T15:09:43.162Z,8.45
2023-01-13T15:12:51.260Z,8.23
2023-01-13T15:15:59.574Z,8.28
2023-01-13T15:19:05.066Z,8.27
2023-01-13T15:22:11.518Z,8.33
2023-01-13T15:25:20.388Z,8.30
2023-01-13T15:28:35.904Z,8.31
2023-01-13T15:31:41.928Z,8.33
2023-01-13T15:34:54.280Z,8.36
2023-01-13T15:37:59.844Z,8.30
2023-01-13T15:41:03.369Z,8.19
2023-01-13T15:44:21.070Z,8.09
2023-01-13T15:47:29.059Z,8.23
2023-01-13T15:50:34.729Z,8.22
2023-01-13T15:53:39.250Z,8.18
2023-01-13T15:56:43.328Z,7.99
2023-01-13T15:59:50.565Z,8.01
2023-01-13T16:02:56.353Z,7.86
2023-01-13T16:06:03.072Z,7.80
2023-01-13T16:09:13.001Z,7.67
2023-01-13T16:12:18.800Z,7.50
2023-01-13T16:15:25.086Z,7.41
2023-01-13T16:18:32.343Z,7.38
2023-01-13T16:21:50.637Z,7.44
2023-01-13T16:24:54.558Z,7.48
2023-01-13T16:28:23.619Z,7.13
2023-01-13T16:31:41.535Z,7.20
2023-01-13T16:34:47.438Z,7.23
2023-01-13T16:37:58.408Z,7.20
2023-01-13T16:41:05.892Z,7.24
2023-01-13T16:44:13.326Z,7.12
2023-01-13T16:47:23.359Z,7.22
2023-01-13T16:50:36.799Z,7.14
2023-01-13T16:53:44.824Z,7.03
2023-01-13T16:56:51.715Z,6.94
2023-01-13T17:00:07.755Z,7.07
2023-01-13T17:03:26.354Z,7.25
2023-01-13T17:06:39.844Z,6.89
2023-01-13T17:09:53.983Z,6.84
2023-01-13T17:13:14.843Z,6.92
2023-01-13T17:16:22.873Z,7.15
2023-01-13T17:19:30.112Z,7.28
2023-01-13T17:22:34.120Z,7.26
2023-01-13T17:25:39.930Z,6.99
2023-01-13T17:28:48.147Z,6.91
2023-01-13T17:31:57.461Z,7.06
2023-01-13T17:35:08.534Z,7.18
2023-01-13T17:38:20.534Z,7.03
2023-01-13T17:41:57.660Z,7.04
2023-01-13T17:45:12.587Z,7.29
2023-01-13T17:48:18.094Z,7.40
2023-01-13T17:51:30.741Z,7.51
2023-01-13T17:54:43.882Z,7.56
2023-01-13T17:57:50.219Z,7.44
2023-01-13T18:00:54.041Z,7.29
2023-01-13T18:03:59.107Z,7.29
2023-01-13T18:07:03.392Z,7.24
2023-01-13T18:10:08.224Z,7.18
2023-01-13T18:13:13.319Z,7.23
2023-01-13T18:16:19.197Z,7.38
2023-01-13T18:19:42.419Z,7.44
2023-01-13T18:23:09.301Z,7.47
2023-01-13T18:26:34.700Z,7.49
2023-01-13T18:29:47.226Z,7.30
2023-01-13T18:32:53.947Z,7.29
2023-01-13T18:36:01.536Z,7.38
2023-01-13T18:39:06.149Z,7.50
2023-01-13T18:42:30.295Z,7.70
2023-01-13T18:45:37.917Z,7.34
2023-01-13T18:48:44.641Z,7.37
2023-01-13T18:51:49.474Z,6.90
2023-01-13T18:54:54.307Z,6.95
2023-01-13T18:58:00.720Z,6.96
2023-01-13T19:01:06.974Z,7.03
2023-01-13T19:04:16.900Z,6.27
2023-01-13T19:07:24.760Z,6.61
2023-01-13T19:10:35.049Z,6.24
2023-01-13T19:13:39.002Z,6.36
2023-01-13T19:16:44.323Z,6.49
2023-01-13T19:20:11.732Z,6.52
2023-01-13T19:23:15.933Z,5.65
2023-01-13T19:26:19.840Z,6.01
2023-01-13T19:29:24.761Z,5.92
2023-01-13T19:32:33.858Z,6.10
2023-01-13T19:35:38.502Z,6.08
2023-01-13T19:38:42.799Z,6.15
2023-01-13T19:42:29.625Z,6.14
2023-01-13T19:45:35.373Z,6.08
2023-01-13T19:48:42.947Z,6.34
2023-01-13T19:51:47.941Z,6.24
2023-01-13T19:54:51.948Z,6.38
2023-01-13T19:57:59.584Z,6.39
2023-01-13T20:01:11.833Z,6.27
2023-01-13T20:04:31.375Z,6.14
2023-01-13T20:07:35.943Z,6.03
2023-01-13T20:10:43.452Z,6.07
2023-01-13T20:13:47.094Z,6.02
2023-01-13T20:16:51.409Z,6.08
2023-01-13T20:19:56.601Z,6.11
2023-01-13T20:23:00.627Z,6.20
2023-01-13T20:26:08.943Z,5.96
2023-01-13T20:29:13.154Z,6.03
2023-01-13T20:32:16.917Z,6.17
2023-01-13T20:35:24.418Z,6.25
2023-01-13T20:38:27.977Z,5.93
2023-01-13T20:41:49.726Z,6.09
2023-01-13T20:44:53.221Z,5.74
2023-01-13T20:47:57.613Z,5.59
2023-01-13T20:51:08.031Z,5.62
2023-01-13T20:54:14.108Z,5.78
2023-01-13T20:57:20.851Z,5.87
2023-01-13T21:00:24.978Z,5.88
2023-01-13T21:03:29.011Z,6.11
2023-01-13T21:06:36.475Z,5.87
2023-01-13T21:09:41.361Z,5.85
2023-01-13T21:13:04.000Z,6.14
2023-01-13T21:16:10.847Z,5.84
2023-01-13T21:19:18.297Z,5.99
2023-01-13T21:22:23.739Z,5.94
2023-01-13T21:25:35.212Z,6.20
2023-01-13T21:28:44.486Z,6.20
2023-01-13T21:31:50.324Z,6.23
2023-01-13T21:34:53.942Z,6.09
2023-01-13T21:38:02.332Z,6.21
2023-01-13T21:41:14.739Z,5.99
2023-01-13T21:44:39.412Z,6.25
2023-01-13T21:47:52.137Z,6.07
2023-01-13T21:50:56.184Z,6.29
2023-01-13T21:54:03.248Z,6.54
2023-01-13T21:57:07.752Z,6.22
2023-01-13T22:00:13.425Z,6.36
2023-01-13T22:03:26.706Z,6.41
2023-01-13T22:06:32.255Z,6.52
2023-01-13T22:09:41.884Z,6.52
2023-01-13T22:12:54.196Z,6.73
2023-01-13T22:16:04.741Z,6.68
2023-01-13T22:19:11.866Z,6.63
2023-01-13T22:22:18.583Z,6.66
2023-01-13T22:25:28.047Z,6.59
2023-01-13T22:28:34.394Z,6.78
2023-01-13T22:31:39.462Z,6.97
2023-01-13T22:34:49.066Z,6.69
2023-01-13T22:37:52.479Z,6.97
2023-01-13T22:41:07.939Z,7.15
2023-01-13T22:44:16.695Z,7.14
2023-01-13T22:47:24.259Z,7.22
2023-01-13T22:50:28.916Z,6.95
2023-01-13T22:53:35.015Z,6.95
2023-01-13T22:56:43.399Z,7.05
2023-01-13T22:59:49.301Z,7.20
2023-01-13T23:02:57.680Z,6.94
2023-01-13T23:06:03.215Z,7.02
2023-01-13T23:09:10.610Z,6.92
2023-01-13T23:12:16.606Z,6.77
2023-01-13T23:15:22.967Z,6.91
2023-01-13T23:18:27.442Z,6.68
2023-01-13T23:21:33.271Z,6.93
2023-01-13T23:24:37.617Z,6.86
2023-01-13T23:27:42.603Z,6.88
2023-01-13T23:30:46.662Z,7.11
2023-01-13T23:33:50.433Z,7.13
2023-01-13T23:36:54.255Z,7.09
2023-01-13T23:39:57.695Z,7.05
2023-01-13T23:43:04.070Z,6.99
2023-01-13T23:46:12.097Z,6.82
2023-01-13T23:49:17.033Z,6.84
2023-01-13T23:52:20.666Z,6.86
2023-01-13T23:55:28.136Z,7.01
2023-01-13T23:58:33.609Z,7.22
